createdAt,value
2019-05-11T00:02:13.564Z,16.07
2019-05-11T00:04:43.957Z,16.70
2019-05-11T00:07:14.295Z,22.27
2019-05-11T00:09:57.363Z,35.57
2019-05-11T00:12:16.612Z,38.57
2019-05-11T00:14:47.004Z,17.60
2019-05-11T00:17:17.350Z,21.50
2019-05-11T00:19:47.620Z,15.77
2019-05-11T00:22:18.386Z,14.00
2019-05-11T00:24:48.668Z,17.17
2019-05-11T00:27:18.850Z,22.93
2019-05-11T00:29:49.925Z,29.07
2019-05-11T00:32:22.750Z,16.83
2019-05-11T00:34:52.078Z,11.63
2019-05-11T00:37:22.188Z,16.73
2019-05-11T00:39:52.691Z,17.50
2019-05-11T00:42:22.928Z,13.07
2019-05-11T00:44:53.042Z,22.83
2019-05-11T00:47:23.114Z,8.43
2019-05-11T00:49:53.202Z,14.47
2019-05-11T00:52:23.384Z,7.37
2019-05-11T00:54:53.611Z,10.77
2019-05-11T00:57:23.724Z,9.13
2019-05-11T00:59:53.856Z,7.03
2019-05-11T01:02:23.947Z,27.73
2019-05-11T01:04:54.184Z,9.03
2019-05-11T01:07:24.388Z,5.53
2019-05-11T01:09:54.411Z,23.20
2019-05-11T01:12:24.994Z,13.57
2019-05-11T01:14:55.243Z,9.43
2019-05-11T01:17:25.392Z,11.40
2019-05-11T01:19:55.695Z,14.53
2019-05-11T01:22:25.939Z,7.00
2019-05-11T01:24:56.198Z,9.60
2019-05-11T01:27:26.242Z,12.03
2019-05-11T01:29:57.250Z,9.10
2019-05-11T01:32:27.995Z,9.67
2019-05-11T01:34:58.179Z,8.60
2019-05-11T01:37:30.489Z,8.83
2019-05-11T01:40:00.879Z,15.03
2019-05-11T01:42:30.915Z,9.03
2019-05-11T01:45:01.276Z,12.23
2019-05-11T01:47:31.570Z,6.00
2019-05-11T01:50:02.270Z,7.07
2019-05-11T01:52:32.854Z,12.13
2019-05-11T01:55:03.137Z,8.77
2019-05-11T01:57:33.291Z,6.73
2019-05-11T02:00:03.576Z,6.67
2019-05-11T02:02:34.096Z,6.93
2019-05-11T02:05:42.087Z,3.47
2019-05-11T02:08:12.161Z,5.73
2019-05-11T02:10:43.892Z,5.93
2019-05-11T02:13:14.267Z,3.03
2019-05-11T02:15:46.119Z,5.67
2019-05-11T02:18:16.314Z,5.20
2019-05-11T02:20:46.539Z,3.63
2019-05-11T02:23:16.696Z,4.30
2019-05-11T02:25:46.960Z,11.10
2019-05-11T02:28:17.074Z,5.33
2019-05-11T02:30:47.555Z,6.33
2019-05-11T02:33:18.009Z,3.30
2019-05-11T02:35:48.911Z,10.50
2019-05-11T02:38:20.017Z,11.63
2019-05-11T02:40:50.110Z,6.83
2019-05-11T02:43:20.287Z,11.40
2019-05-11T02:45:51.204Z,8.00
2019-05-11T02:48:21.408Z,10.50
2019-05-11T02:50:52.572Z,8.70
2019-05-11T02:53:23.497Z,9.27
2019-05-11T02:55:54.889Z,8.40
2019-05-11T02:58:25.033Z,11.30
2019-05-11T03:00:55.265Z,19.17
2019-05-11T03:03:25.578Z,8.50
2019-05-11T03:05:56.092Z,12.37
2019-05-11T03:08:26.599Z,15.57
2019-05-11T03:10:57.743Z,9.13
2019-05-11T03:13:28.221Z,7.10
2019-05-11T03:15:58.614Z,5.63
2019-05-11T03:18:29.397Z,6.23
2019-05-11T03:20:59.749Z,9.53
2019-05-11T03:23:30.058Z,5.27
2019-05-11T03:26:00.514Z,8.10
2019-05-11T03:28:30.905Z,7.90
2019-05-11T03:31:01.484Z,3.97
2019-05-11T03:33:31.810Z,3.97
2019-05-11T03:36:02.112Z,8.20
2019-05-11T03:38:32.893Z,7.87
2019-05-11T03:41:03.151Z,11.70
2019-05-11T03:43:33.414Z,4.80
2019-05-11T03:46:03.631Z,3.43
2019-05-11T03:48:34.031Z,8.40
2019-05-11T03:51:04.414Z,6.63
2019-05-11T03:53:34.503Z,7.33
2019-05-11T03:56:04.820Z,7.10
2019-05-11T03:58:35.058Z,4.13
2019-05-11T04:01:05.184Z,13.73
2019-05-11T04:03:35.776Z,4.13
2019-05-11T04:06:07.144Z,4.17
2019-05-11T04:08:37.932Z,9.10
2019-05-11T04:11:08.702Z,6.70
2019-05-11T04:13:39.083Z,6.93
2019-05-11T04:16:09.550Z,4.50
2019-05-11T04:18:39.801Z,7.27
2019-05-11T04:21:09.921Z,3.83
2019-05-11T04:23:39.997Z,4.83
2019-05-11T04:26:10.163Z,5.80
2019-05-11T04:28:40.681Z,3.80
2019-05-11T04:31:11.438Z,2.07
2019-05-11T04:33:41.797Z,3.67
2019-05-11T04:36:11.981Z,4.37
2019-05-11T04:38:42.350Z,3.23
2019-05-11T04:41:12.404Z,3.10
2019-05-11T04:43:42.586Z,4.40
2019-05-11T04:46:12.717Z,1.23
2019-05-11T04:48:42.802Z,2.03
2019-05-11T04:51:12.871Z,1.87
2019-05-11T04:53:43.010Z,1.10
2019-05-11T04:56:13.647Z,47.93
2019-05-11T04:58:43.832Z,1.77
2019-05-11T05:01:15.680Z,4.40
2019-05-11T05:03:54.139Z,16.13
2019-05-11T05:06:24.618Z,12.20
2019-05-11T05:08:51.925Z,3.30
2019-05-11T05:11:22.024Z,8.47
2019-05-11T05:13:53.667Z,5.50
2019-05-11T05:16:23.979Z,16.23
2019-05-11T05:18:54.216Z,10.30
2019-05-11T05:21:24.575Z,14.70
2019-05-11T05:23:54.612Z,11.10
2019-05-11T05:26:24.721Z,14.87
2019-05-11T05:28:54.906Z,19.83
2019-05-11T05:31:25.067Z,13.43
2019-05-11T05:33:56.285Z,7.40
2019-05-11T05:36:26.488Z,15.20
2019-05-11T05:38:56.752Z,13.80
2019-05-11T05:41:27.887Z,22.27
2019-05-11T05:43:57.969Z,15.43
2019-05-11T05:46:28.966Z,8.00
2019-05-11T05:48:59.070Z,12.67
2019-05-11T05:51:29.199Z,16.10
2019-05-11T05:53:59.284Z,11.60
2019-05-11T05:56:29.369Z,12.67
2019-05-11T05:58:59.929Z,4.77
2019-05-11T06:01:30.184Z,5.17
2019-05-11T06:04:00.272Z,9.20
2019-05-11T06:06:31.990Z,15.90
2019-05-11T06:09:03.036Z,11.97
2019-05-11T06:11:33.369Z,10.07
2019-05-11T06:14:04.410Z,8.50
2019-05-11T06:16:36.921Z,10.80
2019-05-11T06:19:07.025Z,16.73
2019-05-11T06:21:49.681Z,12.63
2019-05-11T06:24:19.730Z,11.43
2019-05-11T06:26:50.231Z,8.20
2019-05-11T06:29:21.873Z,10.93
2019-05-11T06:31:54.657Z,6.23
2019-05-11T06:34:26.408Z,7.93
2019-05-11T06:36:58.040Z,6.67
2019-05-11T06:39:32.070Z,9.77
2019-05-11T06:42:02.106Z,12.87
2019-05-11T06:44:32.211Z,7.73
2019-05-11T06:47:02.253Z,9.50
2019-05-11T06:49:32.365Z,10.40
2019-05-11T06:52:03.594Z,9.60
2019-05-11T06:54:34.113Z,6.27
2019-05-11T06:57:04.671Z,10.60
2019-05-11T06:59:35.658Z,9.13
2019-05-11T07:02:07.393Z,25.10
2019-05-11T07:04:37.676Z,18.40
2019-05-11T07:07:07.927Z,23.13
2019-05-11T07:09:38.252Z,11.73
2019-05-11T07:12:08.392Z,12.63
2019-05-11T07:14:40.551Z,13.23
2019-05-11T07:17:10.747Z,9.20
2019-05-11T07:19:41.692Z,9.17
2019-05-11T07:22:12.237Z,6.47
2019-05-11T07:24:42.603Z,12.10
2019-05-11T07:27:12.696Z,13.97
2019-05-11T07:29:43.241Z,11.93
2019-05-11T07:32:22.390Z,11.23
2019-05-11T07:34:46.115Z,11.83
2019-05-11T07:37:18.551Z,9.33
2019-05-11T07:39:48.844Z,6.37
2019-05-11T07:42:19.511Z,10.00
2019-05-11T07:44:49.616Z,6.00
2019-05-11T07:47:20.555Z,8.73
2019-05-11T07:49:50.868Z,7.57
2019-05-11T07:52:20.993Z,9.40
2019-05-11T07:54:52.954Z,8.40
2019-05-11T07:57:22.970Z,10.37
2019-05-11T07:59:53.058Z,14.17
2019-05-11T08:02:23.347Z,7.47
2019-05-11T08:04:53.451Z,5.60
2019-05-11T08:07:23.668Z,5.27
2019-05-11T08:09:53.772Z,11.97
2019-05-11T08:12:25.431Z,7.20
2019-05-11T08:15:04.891Z,3.00
2019-05-11T08:17:28.645Z,7.40
2019-05-11T08:19:59.072Z,6.13
2019-05-11T08:22:31.373Z,8.17
2019-05-11T08:25:02.010Z,9.27
2019-05-11T08:27:32.586Z,6.73
2019-05-11T08:30:03.531Z,4.23
2019-05-11T08:32:33.859Z,4.03
2019-05-11T08:35:03.966Z,5.50
2019-05-11T08:37:34.044Z,3.80
2019-05-11T08:40:04.257Z,7.90
2019-05-11T08:42:34.252Z,6.00
2019-05-11T08:45:18.985Z,6.50
2019-05-11T08:47:37.768Z,5.90
2019-05-11T08:50:08.419Z,4.37
2019-05-11T08:52:38.825Z,5.97
2019-05-11T08:55:09.248Z,7.37
2019-05-11T08:57:39.436Z,10.20
2019-05-11T09:00:13.956Z,3.40
2019-05-11T09:02:46.911Z,7.43
2019-05-11T09:05:18.514Z,3.30
2019-05-11T09:07:48.816Z,4.03
2019-05-11T09:10:19.129Z,4.63
2019-05-11T09:12:49.614Z,5.03
2019-05-11T09:15:32.606Z,12.87
2019-05-11T09:17:51.507Z,5.50
2019-05-11T09:20:21.516Z,5.60
2019-05-11T09:22:51.593Z,2.87
2019-05-11T09:25:22.338Z,6.83
2019-05-11T09:27:52.442Z,6.13
2019-05-11T09:30:23.122Z,4.10
2019-05-11T09:32:53.305Z,3.83
2019-05-11T09:35:23.536Z,3.37
2019-05-11T09:37:53.788Z,4.33
2019-05-11T09:40:23.985Z,2.43
2019-05-11T09:42:54.063Z,2.93
2019-05-11T09:45:24.596Z,2.80
2019-05-11T09:47:54.643Z,8.37
2019-05-11T09:50:25.154Z,4.87
2019-05-11T09:52:55.260Z,3.47
2019-05-11T09:55:25.449Z,7.13
2019-05-11T09:57:57.843Z,2.97
2019-05-11T10:00:28.442Z,4.57
2019-05-11T10:02:58.618Z,6.80
2019-05-11T10:05:29.511Z,1.90
2019-05-11T10:08:00.036Z,4.20
2019-05-11T10:10:30.112Z,8.43
2019-05-11T10:13:00.176Z,7.77
2019-05-11T10:15:30.334Z,5.83
2019-05-11T10:18:00.439Z,4.70
2019-05-11T10:20:30.831Z,5.35
2019-05-11T10:23:00.989Z,7.00
2019-05-11T10:25:31.160Z,7.50
2019-05-11T10:28:01.345Z,10.10
2019-05-11T10:30:31.820Z,6.20
2019-05-11T10:33:01.985Z,10.27
2019-05-11T10:35:32.239Z,4.17
2019-05-11T10:38:02.561Z,3.10
2019-05-11T10:40:32.588Z,4.33
2019-05-11T10:43:02.652Z,3.27
2019-05-11T10:45:32.850Z,7.00
2019-05-11T10:48:03.778Z,9.30
2019-05-11T10:50:34.471Z,9.53
2019-05-11T10:53:04.765Z,3.30
2019-05-11T10:55:38.677Z,5.20
2019-05-11T10:58:09.052Z,5.53
2019-05-11T11:00:39.106Z,7.47
2019-05-11T11:03:09.792Z,8.50
2019-05-11T11:05:39.944Z,6.80
2019-05-11T11:08:10.857Z,5.20
2019-05-11T11:10:40.931Z,5.27
2019-05-11T11:13:11.557Z,3.60
2019-05-11T11:15:42.195Z,8.50
2019-05-11T11:18:12.312Z,6.80
2019-05-11T11:20:42.917Z,2.37
2019-05-11T11:23:13.163Z,3.97
2019-05-11T11:25:43.869Z,5.30
2019-05-11T11:28:14.167Z,7.00
2019-05-11T11:30:44.371Z,3.50
2019-05-11T11:33:14.784Z,1.93
2019-05-11T11:35:44.914Z,5.60
2019-05-11T11:38:15.132Z,9.33
2019-05-11T11:40:48.008Z,8.93
2019-05-11T11:43:18.610Z,19.87
2019-05-11T11:45:48.780Z,3.80
2019-05-11T11:48:19.112Z,6.30
2019-05-11T11:50:49.559Z,10.43
2019-05-11T11:53:19.748Z,4.87
2019-05-11T11:55:49.936Z,12.50
2019-05-11T11:58:23.758Z,6.70
2019-05-11T12:00:52.782Z,8.53
2019-05-11T12:03:23.403Z,6.10
2019-05-11T12:05:53.524Z,7.60
2019-05-11T12:08:23.568Z,5.90
2019-05-11T12:10:53.622Z,11.60
2019-05-11T12:13:26.405Z,6.30
2019-05-11T12:15:58.368Z,10.03
2019-05-11T12:18:28.634Z,5.50
2019-05-11T12:20:58.986Z,7.70
2019-05-11T12:23:29.304Z,4.57
2019-05-11T12:25:59.315Z,5.70
2019-05-11T12:28:29.532Z,4.90
2019-05-11T12:30:59.885Z,10.53
2019-05-11T12:33:29.940Z,4.13
2019-05-11T12:36:01.685Z,2.73
2019-05-11T12:38:32.260Z,7.20
2019-05-11T12:41:03.038Z,15.30
2019-05-11T12:43:33.160Z,11.63
2019-05-11T12:46:03.732Z,8.57
2019-05-11T12:48:34.349Z,7.73
2019-05-11T12:51:04.464Z,7.83
2019-05-11T12:53:35.235Z,5.00
2019-05-11T12:56:07.976Z,4.20
2019-05-11T12:58:39.592Z,5.97
2019-05-11T13:01:10.224Z,7.43
2019-05-11T13:03:40.353Z,10.27
2019-05-11T13:06:10.416Z,7.00
2019-05-11T13:08:40.588Z,6.37
2019-05-11T13:11:10.923Z,9.40
2019-05-11T13:13:41.091Z,4.70
2019-05-11T13:16:11.768Z,10.87
2019-05-11T13:18:41.782Z,5.77
2019-05-11T13:21:11.848Z,10.07
2019-05-11T13:23:41.891Z,6.93
2019-05-11T13:26:13.488Z,7.47
2019-05-11T13:28:43.636Z,4.20
2019-05-11T13:31:13.748Z,3.90
2019-05-11T13:33:44.127Z,6.43
2019-05-11T13:36:14.209Z,16.40
2019-05-11T13:38:44.447Z,10.77
2019-05-11T13:41:15.288Z,8.17
2019-05-11T13:43:45.408Z,11.30
2019-05-11T13:46:17.723Z,4.83
2019-05-11T13:48:48.099Z,9.47
2019-05-11T13:51:18.527Z,25.53
2019-05-11T13:53:48.986Z,7.97
2019-05-11T13:56:19.411Z,6.87
2019-05-11T13:58:49.874Z,8.83
2019-05-11T14:01:20.172Z,10.90
2019-05-11T14:03:51.123Z,10.23
2019-05-11T14:06:21.295Z,9.43
2019-05-11T14:08:51.625Z,11.00
2019-05-11T14:11:21.704Z,8.17
2019-05-11T14:13:51.918Z,7.23
2019-05-11T14:16:22.336Z,15.67
2019-05-11T14:18:52.545Z,6.80
2019-05-11T14:21:23.009Z,7.60
2019-05-11T14:23:53.123Z,11.17
2019-05-11T14:26:23.385Z,9.67
2019-05-11T14:28:53.692Z,11.10
2019-05-11T14:31:24.636Z,11.83
2019-05-11T14:33:54.868Z,8.43
2019-05-11T14:36:25.032Z,8.23
2019-05-11T14:38:57.683Z,14.20
2019-05-11T14:41:28.554Z,13.80
2019-05-11T14:43:58.899Z,14.20
2019-05-11T14:46:28.961Z,13.90
2019-05-11T14:48:59.138Z,11.50
2019-05-11T14:51:29.446Z,14.63
2019-05-11T14:54:00.074Z,12.97
2019-05-11T14:56:30.268Z,9.40
2019-05-11T14:59:00.834Z,16.50
2019-05-11T15:01:31.222Z,15.33
2019-05-11T15:04:01.340Z,13.53
2019-05-11T15:06:31.944Z,13.53
2019-05-11T15:09:02.006Z,18.43
2019-05-11T15:11:32.032Z,18.03
2019-05-11T15:14:03.024Z,10.77
2019-05-11T15:16:33.165Z,12.17
2019-05-11T15:19:03.183Z,17.37
2019-05-11T15:21:33.247Z,9.63
2019-05-11T15:24:03.342Z,14.47
2019-05-11T15:26:33.751Z,19.43
2019-05-11T15:29:03.955Z,20.13
2019-05-11T15:31:34.056Z,12.47
2019-05-11T15:34:04.311Z,17.23
2019-05-11T15:36:34.905Z,11.50
2019-05-11T15:39:07.787Z,21.37
2019-05-11T15:41:38.980Z,16.50
2019-05-11T15:44:11.972Z,16.47
2019-05-11T15:46:41.184Z,19.07
2019-05-11T15:49:11.331Z,16.57
2019-05-11T15:51:41.516Z,17.13
2019-05-11T15:54:12.000Z,17.53
2019-05-11T15:56:42.124Z,10.30
2019-05-11T15:59:12.422Z,16.27
2019-05-11T16:01:42.660Z,11.73
2019-05-11T16:04:13.629Z,15.23
2019-05-11T16:06:43.851Z,13.80
2019-05-11T16:09:14.084Z,14.07
2019-05-11T16:11:44.528Z,14.80
2019-05-11T16:14:15.021Z,10.10
2019-05-11T16:16:45.122Z,18.60
2019-05-11T16:19:15.500Z,19.07
2019-05-11T16:21:45.824Z,15.60
2019-05-11T16:24:15.968Z,15.33
2019-05-11T16:26:47.529Z,24.93
2019-05-11T16:29:18.995Z,20.73
2019-05-11T16:31:49.867Z,14.53
2019-05-11T16:34:19.907Z,27.60
2019-05-11T16:36:49.959Z,25.23
2019-05-11T16:39:20.179Z,15.07
2019-05-11T16:41:50.403Z,25.57
2019-05-11T16:44:20.688Z,17.67
2019-05-11T16:46:51.129Z,16.10
2019-05-11T16:49:28.456Z,15.17
2019-05-11T16:51:53.268Z,18.93
2019-05-11T16:54:23.469Z,16.73
2019-05-11T16:56:53.569Z,22.23
2019-05-11T16:59:24.058Z,14.13
2019-05-11T17:01:54.137Z,14.33
2019-05-11T17:04:26.625Z,17.27
2019-05-11T17:06:57.852Z,11.87
2019-05-11T17:09:27.949Z,18.77
2019-05-11T17:11:58.154Z,23.13
2019-05-11T17:14:28.373Z,14.40
2019-05-11T17:16:58.691Z,20.97
2019-05-11T17:19:42.180Z,25.53
2019-05-11T17:22:00.730Z,24.23
2019-05-11T17:24:30.965Z,19.80
2019-05-11T17:27:01.492Z,19.77
2019-05-11T17:29:33.691Z,17.63
2019-05-11T17:32:04.148Z,15.93
2019-05-11T17:34:35.121Z,14.57
2019-05-11T17:37:05.658Z,15.60
2019-05-11T17:39:38.537Z,32.30
2019-05-11T17:42:09.008Z,23.27
2019-05-11T17:44:40.236Z,41.03
2019-05-11T17:47:10.640Z,22.33
2019-05-11T17:49:55.142Z,31.90
2019-05-11T17:52:15.539Z,23.43
2019-05-11T17:54:55.184Z,38.77
2019-05-11T17:57:27.768Z,40.17
2019-05-11T17:59:58.104Z,29.20
2019-05-11T18:02:28.958Z,31.20
2019-05-11T18:04:59.362Z,29.33
2019-05-11T18:07:33.605Z,23.23
2019-05-11T18:10:07.995Z,28.90
2019-05-11T18:12:39.167Z,18.60
2019-05-11T18:15:10.749Z,29.73
2019-05-11T18:17:41.776Z,21.00
2019-05-11T18:20:18.645Z,13.00
2019-05-11T18:22:49.381Z,25.73
2019-05-11T18:25:19.913Z,16.70
2019-05-11T18:27:49.968Z,32.53
2019-05-11T18:30:21.672Z,26.70
2019-05-11T18:32:54.869Z,30.30
2019-05-11T18:35:29.193Z,22.63
2019-05-11T18:37:59.327Z,32.40
2019-05-11T18:40:30.331Z,25.27
2019-05-11T18:43:01.055Z,25.10
2019-05-11T18:45:31.154Z,26.40
2019-05-11T18:48:01.348Z,21.50
2019-05-11T18:50:33.548Z,15.90
2019-05-11T18:53:03.451Z,19.63
2019-05-11T18:55:33.636Z,30.83
2019-05-11T18:58:04.061Z,20.00
2019-05-11T19:00:34.270Z,33.23
2019-05-11T19:03:05.270Z,18.40
2019-05-11T19:05:38.618Z,24.07
2019-05-11T19:08:09.125Z,21.80
2019-05-11T19:10:39.280Z,16.80
2019-05-11T19:13:09.561Z,34.30
2019-05-11T19:15:39.973Z,24.00
2019-05-11T19:18:10.827Z,23.40
2019-05-11T19:20:45.949Z,34.37
2019-05-11T19:23:13.007Z,21.07
2019-05-11T19:25:43.364Z,40.67
2019-05-11T19:28:13.419Z,48.53
2019-05-11T19:30:43.472Z,36.73
2019-05-11T19:33:14.021Z,20.27
2019-05-11T19:35:44.243Z,25.00
2019-05-11T19:38:15.569Z,29.60
2019-05-11T19:40:48.021Z,18.33
2019-05-11T19:43:18.763Z,18.93
2019-05-11T19:45:49.227Z,15.90
2019-05-11T19:48:19.483Z,20.53
2019-05-11T19:51:03.739Z,25.57
2019-05-11T19:53:21.710Z,25.10
2019-05-11T19:55:51.936Z,23.13
2019-05-11T19:58:21.992Z,19.17
2019-05-11T20:00:52.135Z,19.80
2019-05-11T20:03:22.469Z,19.13
2019-05-11T20:05:53.112Z,25.60
2019-05-11T20:08:23.201Z,11.03
2019-05-11T20:10:53.417Z,24.13
2019-05-11T20:13:23.473Z,12.50
2019-05-11T20:15:53.737Z,19.67
2019-05-11T20:18:24.172Z,21.63
2019-05-11T20:20:54.397Z,18.33
2019-05-11T20:23:24.652Z,18.87
2019-05-11T20:25:54.980Z,25.70
2019-05-11T20:28:25.017Z,17.37
2019-05-11T20:30:55.065Z,18.77
2019-05-11T20:33:25.136Z,18.37
2019-05-11T20:35:58.116Z,25.40
2019-05-11T20:38:28.863Z,20.33
2019-05-11T20:40:58.946Z,13.63
2019-05-11T20:43:29.233Z,14.17
2019-05-11T20:45:59.996Z,19.53
2019-05-11T20:48:30.387Z,27.00
2019-05-11T20:51:00.451Z,17.10
2019-05-11T20:53:30.692Z,16.37
2019-05-11T20:56:01.656Z,24.60
2019-05-11T20:58:50.696Z,19.40
2019-05-11T21:01:21.694Z,29.63
2019-05-11T21:03:51.757Z,29.73
2019-05-11T21:06:24.706Z,16.60
2019-05-11T21:08:55.074Z,18.83
2019-05-11T21:11:25.432Z,19.13
2019-05-11T21:13:57.300Z,14.00
2019-05-11T21:16:27.570Z,16.17
2019-05-11T21:19:02.224Z,14.03
2019-05-11T21:21:49.632Z,15.20
2019-05-11T21:24:08.582Z,24.53
2019-05-11T21:26:43.879Z,17.63
2019-05-11T21:29:14.724Z,12.67
2019-05-11T21:31:45.032Z,17.50
2019-05-11T21:34:15.147Z,19.40
2019-05-11T21:36:48.339Z,24.53
2019-05-11T21:39:18.947Z,18.03
2019-05-11T21:41:50.184Z,26.73
2019-05-11T21:44:20.389Z,18.40
2019-05-11T21:46:52.589Z,18.00
2019-05-11T21:49:23.524Z,15.97
2019-05-11T21:52:03.956Z,15.73
2019-05-11T21:54:30.319Z,22.77
2019-05-11T21:57:00.977Z,22.83
2019-05-11T21:59:32.015Z,17.87
2019-05-11T22:02:02.569Z,31.63
2019-05-11T22:04:32.680Z,30.97
2019-05-11T22:07:02.848Z,20.70
2019-05-11T22:09:33.925Z,24.77
2019-05-11T22:12:04.569Z,17.67
2019-05-11T22:14:35.468Z,17.70
2019-05-11T22:17:07.675Z,31.37
2019-05-11T22:19:40.255Z,27.03
2019-05-11T22:22:21.448Z,25.10
2019-05-11T22:24:43.964Z,17.77
2019-05-11T22:27:14.077Z,31.10
2019-05-11T22:29:45.441Z,21.40
2019-05-11T22:32:17.749Z,24.10
2019-05-11T22:34:47.986Z,22.97
2019-05-11T22:37:20.699Z,14.60
2019-05-11T22:39:51.244Z,16.43
2019-05-11T22:42:22.052Z,18.47
2019-05-11T22:44:52.640Z,20.93
2019-05-11T22:47:23.539Z,13.10
2019-05-11T22:49:53.747Z,22.97
2019-05-11T22:52:35.439Z,20.23
2019-05-11T22:54:55.992Z,21.80
2019-05-11T22:57:26.568Z,19.00
2019-05-11T22:59:58.710Z,21.53
2019-05-11T23:02:29.498Z,26.27
2019-05-11T23:05:00.420Z,16.20
2019-05-11T23:07:30.668Z,22.93
2019-05-11T23:10:03.080Z,34.67
2019-05-11T23:12:33.713Z,11.23
2019-05-11T23:15:13.056Z,18.90
2019-05-11T23:17:43.535Z,21.57
2019-05-11T23:20:16.487Z,37.90
2019-05-11T23:22:58.118Z,19.50
2019-05-11T23:25:22.553Z,22.10
2019-05-11T23:27:52.861Z,19.60
2019-05-11T23:30:23.196Z,16.10
2019-05-11T23:32:53.265Z,23.33
2019-05-11T23:35:23.858Z,18.17
2019-05-11T23:37:53.933Z,13.53
2019-05-11T23:40:24.260Z,19.93
2019-05-11T23:42:54.353Z,24.33
2019-05-11T23:45:24.916Z,18.90
2019-05-11T23:47:58.597Z,14.40
2019-05-11T23:50:31.197Z,26.17
2019-05-11T23:53:06.383Z,18.60
2019-05-11T23:55:34.429Z,29.60
2019-05-11T23:58:04.623Z,20.53
